Portada
METAR-TAF:

METAR-TAF

Aeropuertos :

Vientián, Laos

Aeropuerto Internacional Wattay

latitud: 17-57N, longitud: 102-34E, altitud: 171 m

Observación

El informe se hizo hace 7 horas y 7 minutos, a las 16:00 UTC
Viento 2 kt del noroeste
Temperatura 26°C
Humedad 94%
Presión 1009 hPa
Visibilidad: 4000 m
neblina

METAR: VLVT 171600Z 32002KT 4000 BR NSC 26/25 Q1009 NOSIG

Hora: 06:07 (23:07 UTC)

Pronóstico

El informe se hizo hace 6 horas y 7 minutos, a las 17:00 UTC
Pronóstico válido del 17 a las 18 UTC al 18 a las 18 UTC
Viento 4 kt del norte-noroeste
Visibilidad: 8000 m
Nubes dispersas a una altura de 2000 ft
Escasas nubes a una altura de 20000 ft
Temporalmente
del 17 a las 18 UTC al 17 a las 22 UTC
Visibilidad: 4000 m
Escasas nubes a una altura de 5000 ft
Escasas nubes a una altura de 20000 ft
neblina

TAF: VLVT 171700Z 1718/1818 34004KT 8000 SCT020 FEW200 TEMPO 1718/1722 4000 BR FEW050 FEW200

Observaciones y pronósticos meteorológicos de más de 4000 aeropuertos (mensajes METAR y TAF).

Los puntos amarillos y rojos representan las estaciones disponibles.

Ponga el ratón en el punto deseado para ver el nombre de la estación.

Haga clic para ver las observaciones y los pronósticos meteorológicos.

Para cambiar el mapa : haga clic en los botones verdes con una cruz de color negro para hacer un zoom, en el botón verde con un guión para alejar o en las flechas verdes para mapas adyacentes.


METAR-TAF: